createdAt,value
2018-07-22T00:00:03.664Z,20.75
2018-07-22T00:01:03.609Z,20.82
2018-07-22T00:02:56.597Z,20.75
2018-07-22T00:03:56.565Z,20.74
2018-07-22T00:05:49.606Z,20.72
2018-07-22T00:06:49.552Z,20.77
2018-07-22T00:08:42.766Z,20.69
2018-07-22T00:09:42.667Z,20.63
2018-07-22T00:11:35.677Z,20.65
2018-07-22T00:12:35.628Z,20.66
2018-07-22T00:14:28.618Z,20.74
2018-07-22T00:15:28.584Z,20.65
2018-07-22T00:17:21.423Z,20.62
2018-07-22T00:18:21.376Z,20.59
2018-07-22T00:20:14.367Z,20.63
2018-07-22T00:21:14.342Z,20.59
2018-07-22T00:23:07.358Z,20.62
2018-07-22T00:24:07.296Z,20.56
2018-07-22T00:26:00.112Z,20.56
2018-07-22T00:27:00.083Z,20.50
2018-07-22T00:28:53.148Z,20.50
2018-07-22T00:29:53.088Z,20.55
2018-07-22T00:31:45.914Z,20.51
2018-07-22T00:32:45.872Z,20.41
2018-07-22T00:34:38.874Z,20.48
2018-07-22T00:35:38.832Z,20.44
2018-07-22T00:37:32.668Z,20.44
2018-07-22T00:38:32.618Z,20.41
2018-07-22T00:40:25.637Z,20.32
2018-07-22T00:41:25.600Z,20.25
2018-07-22T00:43:18.608Z,20.31
2018-07-22T00:44:18.562Z,20.22
2018-07-22T00:46:11.733Z,20.22
2018-07-22T00:47:11.633Z,20.21
2018-07-22T00:49:04.605Z,20.31
2018-07-22T00:50:04.553Z,20.18
2018-07-22T00:51:57.569Z,20.14
2018-07-22T00:52:57.515Z,20.21
2018-07-22T00:54:50.405Z,20.28
2018-07-22T00:55:50.353Z,20.16
2018-07-22T00:57:43.257Z,20.22
2018-07-22T00:58:43.138Z,20.18
2018-07-22T01:00:36.127Z,20.22
2018-07-22T01:01:36.095Z,20.29
2018-07-22T01:03:29.118Z,20.18
2018-07-22T01:04:29.058Z,20.24
2018-07-22T01:06:22.070Z,20.21
2018-07-22T01:07:22.010Z,20.22
2018-07-22T01:09:15.034Z,20.16
2018-07-22T01:10:14.979Z,20.22
2018-07-22T01:12:07.978Z,20.21
2018-07-22T01:13:07.933Z,20.14
2018-07-22T01:15:00.783Z,20.21
2018-07-22T01:16:00.739Z,20.26
2018-07-22T01:17:53.722Z,20.13
2018-07-22T01:18:53.693Z,20.09
2018-07-22T01:20:46.730Z,20.13
2018-07-22T01:21:46.674Z,20.18
2018-07-22T01:23:39.858Z,20.02
2018-07-22T01:24:39.800Z,20.09
2018-07-22T01:26:32.768Z,20.10
2018-07-22T01:27:32.731Z,20.09
2018-07-22T01:29:25.561Z,20.00
2018-07-22T01:30:25.521Z,20.03
2018-07-22T01:32:18.356Z,20.09
2018-07-22T01:33:18.304Z,20.09
2018-07-22T01:35:11.176Z,19.91
2018-07-22T01:36:11.136Z,19.96
2018-07-22T01:38:04.426Z,19.96
2018-07-22T01:39:04.398Z,19.95
2018-07-22T01:40:57.694Z,19.95
2018-07-22T01:41:57.648Z,19.88
2018-07-22T01:43:50.643Z,19.89
2018-07-22T01:44:50.606Z,19.91
2018-07-22T01:46:43.739Z,19.82
2018-07-22T01:47:43.684Z,19.84
2018-07-22T01:49:36.694Z,19.86
2018-07-22T01:50:36.649Z,19.81
2018-07-22T01:52:29.663Z,19.76
2018-07-22T01:53:29.604Z,19.81
2018-07-22T01:55:22.814Z,19.84
2018-07-22T01:56:22.754Z,19.82
2018-07-22T01:58:15.752Z,19.84
2018-07-22T01:59:15.711Z,19.88
2018-07-22T02:01:08.885Z,19.73
2018-07-22T02:02:08.825Z,19.66
2018-07-22T02:04:01.838Z,19.71
2018-07-22T02:05:01.912Z,19.70
2018-07-22T02:06:54.592Z,19.64
2018-07-22T02:07:54.576Z,19.69
2018-07-22T02:09:47.716Z,19.73
2018-07-22T02:10:47.669Z,19.63
2018-07-22T02:12:40.676Z,19.66
2018-07-22T02:13:40.625Z,19.52
2018-07-22T02:15:33.965Z,19.56
2018-07-22T02:16:33.770Z,19.63
2018-07-22T02:18:26.611Z,19.63
2018-07-22T02:19:26.555Z,19.67
2018-07-22T02:21:19.402Z,19.71
2018-07-22T02:22:19.337Z,19.63
2018-07-22T02:24:12.336Z,19.63
2018-07-22T02:25:12.306Z,19.62
2018-07-22T02:27:05.230Z,19.66
2018-07-22T02:28:05.180Z,19.62
2018-07-22T02:29:58.191Z,19.59
2018-07-22T02:30:58.150Z,19.59
2018-07-22T02:32:51.145Z,19.51
2018-07-22T02:33:51.108Z,19.59
2018-07-22T02:35:44.267Z,19.56
2018-07-22T02:36:44.234Z,19.59
2018-07-22T02:38:37.224Z,19.41
2018-07-22T02:39:37.175Z,19.47
2018-07-22T02:41:30.424Z,19.40
2018-07-22T02:42:30.348Z,19.47
2018-07-22T02:44:23.176Z,19.40
2018-07-22T02:45:23.124Z,19.33
2018-07-22T02:47:16.114Z,19.45
2018-07-22T02:48:16.085Z,19.45
2018-07-22T02:50:09.348Z,19.39
2018-07-22T02:51:09.283Z,19.40
2018-07-22T02:53:02.129Z,19.47
2018-07-22T02:54:02.066Z,19.47
2018-07-22T02:55:55.058Z,19.49
2018-07-22T02:56:55.066Z,19.36
2018-07-22T02:58:48.148Z,19.48
2018-07-22T02:59:48.087Z,19.33
2018-07-22T03:01:40.914Z,19.48
2018-07-22T03:02:40.880Z,19.44
2018-07-22T03:04:33.737Z,19.47
2018-07-22T03:05:33.687Z,19.48
2018-07-22T03:07:26.672Z,19.40
2018-07-22T03:08:26.632Z,19.44
2018-07-22T03:10:19.583Z,19.40
2018-07-22T03:11:19.519Z,19.37
2018-07-22T03:13:12.544Z,19.33
2018-07-22T03:14:12.478Z,19.29
2018-07-22T03:16:05.481Z,19.34
2018-07-22T03:17:05.434Z,19.30
2018-07-22T03:18:58.273Z,19.33
2018-07-22T03:19:58.224Z,19.27
2018-07-22T03:21:51.144Z,19.18
2018-07-22T03:22:51.004Z,19.31
2018-07-22T03:24:44.062Z,19.21
2018-07-22T03:25:43.985Z,19.27
2018-07-22T03:27:36.994Z,19.26
2018-07-22T03:28:36.933Z,19.27
2018-07-22T03:30:29.851Z,19.26
2018-07-22T03:31:29.822Z,19.15
2018-07-22T03:33:22.815Z,19.11
2018-07-22T03:34:22.765Z,19.07
2018-07-22T03:36:15.748Z,18.99
2018-07-22T03:37:15.710Z,18.92
2018-07-22T03:39:08.541Z,18.93
2018-07-22T03:40:08.495Z,18.98
2018-07-22T03:42:01.311Z,18.90
2018-07-22T03:43:01.285Z,18.86
2018-07-22T03:44:54.289Z,18.90
2018-07-22T03:45:54.236Z,18.84
2018-07-22T03:47:47.231Z,18.86
2018-07-22T03:48:47.180Z,18.78
2018-07-22T03:50:40.390Z,18.77
2018-07-22T03:51:40.297Z,18.73
2018-07-22T03:53:33.132Z,18.73
2018-07-22T03:54:33.071Z,18.75
2018-07-22T03:56:26.087Z,18.73
2018-07-22T03:57:26.027Z,18.63
2018-07-22T03:59:19.265Z,18.63
2018-07-22T04:00:19.100Z,18.59
2018-07-22T04:02:11.947Z,18.65
2018-07-22T04:03:11.902Z,18.58
2018-07-22T04:05:04.913Z,18.56
2018-07-22T04:06:04.862Z,18.58
2018-07-22T04:07:58.057Z,18.59
2018-07-22T04:08:57.967Z,18.58
2018-07-22T04:10:50.982Z,18.66
2018-07-22T04:11:50.921Z,18.59
2018-07-22T04:13:43.947Z,18.53
2018-07-22T04:14:43.880Z,18.62
2018-07-22T04:16:36.775Z,18.62
2018-07-22T04:17:36.745Z,18.60
2018-07-22T04:19:29.757Z,18.56
2018-07-22T04:20:29.711Z,18.62
2018-07-22T04:22:22.533Z,18.62
2018-07-22T04:23:22.506Z,18.55
2018-07-22T04:25:15.676Z,18.65
2018-07-22T04:26:15.601Z,18.63
2018-07-22T04:28:08.426Z,18.77
2018-07-22T04:29:08.386Z,18.71
2018-07-22T04:31:01.407Z,18.73
2018-07-22T04:32:01.366Z,18.83
2018-07-22T04:33:54.603Z,18.78
2018-07-22T04:34:54.460Z,18.81
2018-07-22T04:36:47.461Z,18.80
2018-07-22T04:37:47.408Z,18.73
2018-07-22T04:39:40.400Z,18.78
2018-07-22T04:40:40.356Z,18.78
2018-07-22T04:42:33.551Z,18.74
2018-07-22T04:43:33.497Z,18.75
2018-07-22T04:45:26.478Z,18.81
2018-07-22T04:46:26.542Z,18.81
2018-07-22T04:48:19.788Z,18.78
2018-07-22T04:49:19.573Z,18.83
2018-07-22T04:51:12.575Z,18.81
2018-07-22T04:52:12.527Z,18.80
2018-07-22T04:54:05.511Z,18.75
2018-07-22T04:55:05.473Z,18.88
2018-07-22T04:56:58.422Z,18.88
2018-07-22T04:57:58.368Z,18.89
2018-07-22T04:59:51.371Z,18.89
2018-07-22T05:00:51.332Z,18.95
2018-07-22T05:02:44.161Z,18.90
2018-07-22T05:03:44.107Z,18.90
2018-07-22T05:05:37.111Z,18.83
2018-07-22T05:06:37.076Z,18.73
2018-07-22T05:08:30.122Z,18.81
2018-07-22T05:09:30.077Z,18.81
2018-07-22T05:11:22.917Z,18.95
2018-07-22T05:12:22.848Z,18.90
2018-07-22T05:14:15.847Z,18.98
2018-07-22T05:15:15.809Z,18.86
2018-07-22T05:17:08.764Z,18.90
2018-07-22T05:18:08.725Z,18.93
2018-07-22T05:20:01.730Z,18.84
2018-07-22T05:21:01.665Z,18.81
2018-07-22T05:22:54.673Z,18.90
2018-07-22T05:23:54.619Z,18.88
2018-07-22T05:25:47.775Z,18.84
2018-07-22T05:26:47.703Z,18.73
2018-07-22T05:28:40.732Z,18.80
2018-07-22T05:29:40.654Z,18.88
2018-07-22T05:31:33.480Z,18.88
2018-07-22T05:32:33.489Z,18.84
2018-07-22T05:34:26.599Z,18.74
2018-07-22T05:35:26.540Z,18.77
2018-07-22T05:37:19.542Z,18.89
2018-07-22T05:38:19.495Z,18.99
2018-07-22T05:40:12.498Z,18.90
2018-07-22T05:41:12.450Z,18.98
2018-07-22T05:43:05.324Z,19.07
2018-07-22T05:44:05.258Z,19.04
2018-07-22T05:45:58.253Z,19.08
2018-07-22T05:46:58.234Z,19.12
2018-07-22T05:48:51.245Z,18.96
2018-07-22T05:49:51.204Z,19.09
2018-07-22T05:51:44.384Z,19.04
2018-07-22T05:52:44.289Z,19.15
2018-07-22T05:54:37.139Z,19.19
2018-07-22T05:55:37.079Z,19.26
2018-07-22T05:57:30.075Z,19.24
2018-07-22T05:58:30.031Z,19.31
2018-07-22T06:00:23.194Z,19.33
2018-07-22T06:01:23.161Z,19.31
2018-07-22T06:03:16.188Z,19.29
2018-07-22T06:04:16.104Z,19.36
2018-07-22T06:06:09.095Z,19.45
2018-07-22T06:07:09.044Z,19.41
2018-07-22T06:09:01.887Z,19.45
2018-07-22T06:10:01.868Z,19.47
2018-07-22T06:11:54.815Z,19.44
2018-07-22T06:12:54.641Z,19.37
2018-07-22T06:14:47.621Z,19.41
2018-07-22T06:15:47.602Z,19.40
2018-07-22T06:17:40.598Z,19.30
2018-07-22T06:18:40.549Z,19.26
2018-07-22T06:20:33.625Z,19.34
2018-07-22T06:21:33.527Z,19.31
2018-07-22T06:23:26.523Z,19.45
2018-07-22T06:24:26.586Z,19.41
2018-07-22T06:26:19.628Z,19.48
2018-07-22T06:27:19.589Z,19.44
2018-07-22T06:29:12.416Z,19.55
2018-07-22T06:30:12.392Z,19.52
2018-07-22T06:32:05.400Z,19.54
2018-07-22T06:33:05.348Z,19.54
2018-07-22T06:34:58.489Z,19.48
2018-07-22T06:35:58.458Z,19.54
2018-07-22T06:37:51.464Z,19.59
2018-07-22T06:38:51.410Z,19.54
2018-07-22T06:40:44.841Z,19.58
2018-07-22T06:41:44.696Z,19.58
2018-07-22T06:43:37.682Z,19.52
2018-07-22T06:44:37.633Z,19.56
2018-07-22T06:46:30.635Z,19.62
2018-07-22T06:47:30.593Z,19.58
2018-07-22T06:49:23.506Z,19.56
2018-07-22T06:50:23.453Z,19.66
2018-07-22T06:52:16.372Z,19.67
2018-07-22T06:53:16.240Z,19.67
2018-07-22T06:55:09.246Z,19.73
2018-07-22T06:56:09.210Z,19.88
2018-07-22T06:58:02.226Z,19.73
2018-07-22T06:59:02.216Z,19.77
2018-07-22T07:00:55.066Z,19.88
2018-07-22T07:01:54.969Z,19.89
2018-07-22T07:03:47.975Z,19.95
2018-07-22T07:04:47.926Z,20.04
2018-07-22T07:06:40.913Z,20.00
2018-07-22T07:07:40.895Z,20.07
2018-07-22T07:09:34.082Z,20.07
2018-07-22T07:10:33.989Z,20.07
2018-07-22T07:12:26.986Z,20.09
2018-07-22T07:13:26.942Z,20.13
2018-07-22T07:15:19.932Z,20.19
2018-07-22T07:16:19.894Z,20.36
2018-07-22T07:18:12.727Z,20.43
2018-07-22T07:19:12.698Z,20.50
2018-07-22T07:21:05.673Z,20.65
2018-07-22T07:22:05.636Z,20.66
2018-07-22T07:23:58.479Z,20.69
2018-07-22T07:24:58.417Z,20.77
2018-07-22T07:26:51.418Z,20.69
2018-07-22T07:27:51.379Z,20.75
2018-07-22T07:29:44.234Z,20.74
2018-07-22T07:30:44.190Z,20.77
2018-07-22T07:32:37.167Z,20.81
2018-07-22T07:33:37.218Z,20.77
2018-07-22T07:35:29.954Z,20.92
2018-07-22T07:36:29.922Z,20.90
2018-07-22T07:38:22.902Z,20.99
2018-07-22T07:39:22.873Z,21.02
2018-07-22T07:41:15.899Z,21.07
2018-07-22T07:42:15.714Z,21.11
2018-07-22T07:44:08.852Z,21.20
2018-07-22T07:45:08.778Z,21.15
2018-07-22T07:47:01.794Z,21.20
2018-07-22T07:48:01.729Z,21.22
2018-07-22T07:49:54.589Z,21.18
2018-07-22T07:50:54.533Z,21.07
2018-07-22T07:52:47.500Z,21.17
2018-07-22T07:53:47.473Z,21.22
2018-07-22T07:55:40.594Z,21.29
2018-07-22T07:56:40.533Z,21.32
2018-07-22T07:58:33.339Z,21.33
2018-07-22T07:59:33.309Z,21.37
2018-07-22T08:01:26.300Z,21.36
2018-07-22T08:02:26.262Z,21.39
2018-07-22T08:04:19.254Z,21.42
2018-07-22T08:05:19.250Z,21.35
2018-07-22T08:07:12.437Z,21.45
2018-07-22T08:08:12.320Z,21.54
2018-07-22T08:10:05.339Z,21.46
2018-07-22T08:11:05.276Z,21.54
2018-07-22T08:12:58.245Z,21.58
2018-07-22T08:13:58.210Z,21.62
2018-07-22T08:15:51.084Z,21.72
2018-07-22T08:16:51.039Z,21.61
2018-07-22T08:18:44.022Z,21.70
2018-07-22T08:19:44.006Z,21.83
2018-07-22T08:21:37.038Z,22.04
2018-07-22T08:22:36.948Z,22.02
2018-07-22T08:24:30.060Z,22.15
2018-07-22T08:25:30.040Z,22.20
2018-07-22T08:27:23.057Z,22.14
2018-07-22T08:28:23.005Z,22.14
2018-07-22T08:30:16.009Z,22.28
2018-07-22T08:31:15.969Z,22.30
2018-07-22T08:33:08.851Z,22.44
2018-07-22T08:34:08.830Z,22.44
2018-07-22T08:36:01.811Z,22.50
2018-07-22T08:37:01.769Z,22.53
2018-07-22T08:38:54.600Z,22.73
2018-07-22T08:39:54.551Z,22.69
2018-07-22T08:41:47.662Z,22.73
2018-07-22T08:42:47.633Z,22.84
2018-07-22T08:44:40.632Z,22.80
2018-07-22T08:45:40.584Z,22.88
2018-07-22T08:47:33.594Z,23.00
2018-07-22T08:48:33.525Z,23.09
2018-07-22T08:50:26.641Z,23.18
2018-07-22T08:51:26.607Z,23.15
2018-07-22T08:53:19.640Z,23.08
2018-07-22T08:54:19.574Z,23.13
2018-07-22T08:56:12.558Z,23.17
2018-07-22T08:57:12.541Z,23.18
2018-07-22T08:59:05.484Z,23.27
2018-07-22T09:00:05.337Z,23.37
2018-07-22T09:01:58.315Z,23.51
2018-07-22T09:02:58.276Z,23.50
2018-07-22T09:04:51.286Z,23.63
2018-07-22T09:05:51.251Z,23.61
2018-07-22T09:07:44.555Z,23.61
2018-07-22T09:08:44.538Z,23.69
2018-07-22T09:10:37.535Z,23.83
2018-07-22T09:11:37.540Z,23.76
2018-07-22T09:13:30.662Z,23.80
2018-07-22T09:14:30.602Z,23.80
2018-07-22T09:16:23.578Z,23.62
2018-07-22T09:17:23.549Z,23.66
2018-07-22T09:19:16.567Z,23.91
2018-07-22T09:20:16.513Z,23.88
2018-07-22T09:22:09.348Z,23.93
2018-07-22T09:23:09.314Z,23.71
2018-07-22T09:25:02.320Z,23.88
2018-07-22T09:26:02.268Z,24.05
2018-07-22T09:27:55.265Z,24.14
2018-07-22T09:28:55.218Z,24.18
2018-07-22T09:30:48.452Z,24.40
2018-07-22T09:31:48.377Z,24.33
2018-07-22T09:33:41.372Z,24.36
2018-07-22T09:34:41.341Z,24.38
2018-07-22T09:36:34.603Z,24.55
2018-07-22T09:37:34.459Z,24.61
2018-07-22T09:39:27.452Z,24.66
2018-07-22T09:40:27.450Z,24.63
2018-07-22T09:42:20.279Z,24.74
2018-07-22T09:43:20.278Z,24.86
2018-07-22T09:45:13.374Z,24.73
2018-07-22T09:46:13.318Z,24.70
2018-07-22T09:48:06.373Z,25.03
2018-07-22T09:49:06.292Z,24.85
2018-07-22T09:50:59.293Z,24.63
2018-07-22T09:51:59.257Z,24.78
2018-07-22T09:53:52.208Z,24.85
2018-07-22T09:54:52.099Z,24.73
2018-07-22T09:56:44.944Z,24.77
2018-07-22T09:57:44.914Z,25.03
2018-07-22T09:59:37.878Z,25.28
2018-07-22T10:00:37.855Z,25.36
2018-07-22T10:02:30.889Z,25.55
2018-07-22T10:03:30.836Z,25.66
2018-07-22T10:05:23.889Z,25.88
2018-07-22T10:06:23.815Z,25.84
2018-07-22T10:08:16.833Z,26.25
2018-07-22T10:09:16.914Z,26.53
2018-07-22T10:11:10.061Z,27.00
2018-07-22T10:12:09.943Z,27.42
2018-07-22T10:14:02.936Z,27.98
2018-07-22T10:15:02.928Z,28.63
2018-07-22T10:16:55.939Z,29.13
2018-07-22T10:17:55.884Z,29.42
2018-07-22T10:19:48.890Z,29.65
2018-07-22T10:20:48.865Z,29.90
2018-07-22T10:22:41.937Z,30.30
2018-07-22T10:23:41.905Z,30.59
2018-07-22T10:25:34.739Z,31.18
2018-07-22T10:26:34.710Z,31.44
2018-07-22T10:28:27.779Z,31.07
2018-07-22T10:29:27.731Z,31.27
2018-07-22T10:31:20.571Z,31.22
2018-07-22T10:32:20.539Z,31.25
2018-07-22T10:34:13.590Z,31.70
2018-07-22T10:35:13.542Z,31.99
2018-07-22T10:37:06.649Z,32.30
2018-07-22T10:38:06.600Z,32.52
2018-07-22T10:39:59.665Z,32.52
2018-07-22T10:40:59.661Z,32.71
2018-07-22T10:42:52.854Z,33.15
2018-07-22T10:43:52.769Z,33.59
2018-07-22T10:45:45.784Z,33.61
2018-07-22T10:46:45.756Z,33.17
2018-07-22T10:48:38.939Z,32.95
2018-07-22T10:49:38.879Z,33.02
2018-07-22T10:51:31.906Z,33.23
2018-07-22T10:52:31.872Z,33.58
2018-07-22T10:54:24.936Z,33.87
2018-07-22T10:55:24.862Z,33.71
2018-07-22T10:57:17.714Z,33.74
2018-07-22T10:58:17.704Z,34.13
2018-07-22T11:00:10.943Z,33.87
2018-07-22T11:01:10.917Z,33.17
2018-07-22T11:03:03.959Z,33.37
2018-07-22T11:04:03.914Z,33.23
2018-07-22T11:05:56.947Z,33.40
2018-07-22T11:06:56.918Z,33.59
2018-07-22T11:08:49.942Z,33.59
2018-07-22T11:09:49.897Z,33.42
2018-07-22T11:11:42.812Z,33.17
2018-07-22T11:12:42.790Z,33.34
2018-07-22T11:14:36.203Z,33.73
2018-07-22T11:15:36.112Z,34.06
2018-07-22T11:17:29.020Z,34.60
2018-07-22T11:18:28.932Z,34.77
2018-07-22T11:20:22.008Z,35.05
2018-07-22T11:21:22.032Z,35.15
2018-07-22T11:23:15.002Z,34.96
2018-07-22T11:24:14.966Z,34.99
2018-07-22T11:26:07.874Z,35.56
2018-07-22T11:27:07.826Z,35.63
2018-07-22T11:29:00.750Z,35.85
2018-07-22T11:30:00.647Z,35.83
2018-07-22T11:31:53.523Z,35.55
2018-07-22T11:32:53.492Z,35.88
2018-07-22T11:34:46.329Z,36.04
2018-07-22T11:35:46.304Z,36.24
2018-07-22T11:37:39.480Z,35.39
2018-07-22T11:38:39.465Z,35.61
2018-07-22T11:40:32.481Z,36.12
2018-07-22T11:41:32.457Z,36.33
2018-07-22T11:43:25.299Z,36.54
2018-07-22T11:44:25.281Z,36.35
2018-07-22T11:46:18.141Z,35.63
2018-07-22T11:47:18.107Z,35.70
2018-07-22T11:49:11.117Z,35.66
2018-07-22T11:50:11.095Z,35.74
2018-07-22T11:52:04.452Z,35.17
2018-07-22T11:53:04.421Z,35.22
2018-07-22T11:54:57.442Z,35.41
2018-07-22T11:55:57.412Z,35.55
2018-07-22T11:57:50.440Z,35.53
2018-07-22T11:58:50.402Z,35.89
2018-07-22T12:00:43.518Z,36.40
2018-07-22T12:01:43.483Z,35.64
2018-07-22T12:03:36.343Z,35.34
2018-07-22T12:04:36.331Z,35.00
2018-07-22T12:06:29.351Z,34.99
2018-07-22T12:07:29.319Z,34.55
2018-07-22T12:09:22.500Z,35.26
2018-07-22T12:10:22.475Z,35.18
2018-07-22T12:12:15.542Z,35.82
2018-07-22T12:13:15.480Z,35.58
2018-07-22T12:15:08.328Z,34.92
2018-07-22T12:16:08.334Z,35.22
2018-07-22T12:18:01.194Z,35.61
2018-07-22T12:19:01.142Z,35.58
2018-07-22T12:20:53.979Z,35.95
2018-07-22T12:21:53.962Z,35.64
2018-07-22T12:23:46.838Z,35.79
2018-07-22T12:24:46.790Z,35.52
2018-07-22T12:26:40.052Z,35.36
2018-07-22T12:27:39.937Z,35.63
2018-07-22T12:29:32.958Z,35.19
2018-07-22T12:30:32.939Z,34.05
2018-07-22T12:32:25.807Z,34.36
2018-07-22T12:33:25.774Z,34.93
2018-07-22T12:35:18.978Z,34.86
2018-07-22T12:36:18.977Z,35.37
2018-07-22T12:38:11.867Z,35.60
2018-07-22T12:39:11.786Z,35.04
2018-07-22T12:41:04.622Z,34.83
2018-07-22T12:42:04.615Z,34.52
2018-07-22T12:43:57.809Z,34.99
2018-07-22T12:44:57.755Z,35.31
2018-07-22T12:46:50.617Z,34.92
2018-07-22T12:47:50.572Z,34.78
2018-07-22T12:49:43.570Z,35.30
2018-07-22T12:50:43.549Z,35.53
2018-07-22T12:52:36.422Z,35.26
2018-07-22T12:53:36.372Z,34.66
2018-07-22T12:55:29.238Z,35.27
2018-07-22T12:56:29.209Z,35.61
2018-07-22T12:58:22.233Z,35.76
2018-07-22T12:59:22.195Z,36.07
2018-07-22T13:01:15.049Z,36.37
2018-07-22T13:02:15.046Z,36.46
2018-07-22T13:04:08.164Z,36.99
2018-07-22T13:05:08.122Z,36.83
2018-07-22T13:07:01.145Z,35.34
2018-07-22T13:08:01.122Z,34.99
2018-07-22T13:09:53.959Z,34.73
2018-07-22T13:10:53.936Z,34.38
2018-07-22T13:12:46.803Z,34.85
2018-07-22T13:13:46.767Z,34.95
2018-07-22T13:15:39.641Z,35.34
2018-07-22T13:16:39.601Z,35.41
2018-07-22T13:18:32.456Z,35.80
2018-07-22T13:19:32.409Z,35.85
2018-07-22T13:21:25.427Z,35.66
2018-07-22T13:22:25.402Z,35.90
2018-07-22T13:24:18.291Z,36.23
2018-07-22T13:25:18.241Z,36.16
2018-07-22T13:27:11.250Z,35.71
2018-07-22T13:28:11.235Z,35.41
2018-07-22T13:30:04.599Z,35.07
2018-07-22T13:31:04.556Z,34.97
2018-07-22T13:32:57.609Z,35.31
2018-07-22T13:33:57.590Z,35.78
2018-07-22T13:35:50.825Z,35.63
2018-07-22T13:36:50.732Z,35.66
2018-07-22T13:38:43.726Z,35.44
2018-07-22T13:39:43.721Z,35.23
2018-07-22T13:41:36.737Z,34.66
2018-07-22T13:42:36.714Z,34.85
2018-07-22T13:44:29.793Z,34.99
2018-07-22T13:45:29.864Z,35.05
2018-07-22T13:47:22.601Z,35.10
2018-07-22T13:48:22.589Z,35.07
2018-07-22T13:50:15.625Z,35.23
2018-07-22T13:51:15.632Z,35.12
2018-07-22T13:53:08.426Z,35.39
2018-07-22T13:54:08.412Z,35.39
2018-07-22T13:56:01.441Z,35.51
2018-07-22T13:57:01.401Z,35.55
2018-07-22T13:58:54.416Z,35.39
2018-07-22T13:59:54.383Z,35.68
2018-07-22T14:01:47.283Z,35.95
2018-07-22T14:02:47.247Z,36.09
2018-07-22T14:04:40.303Z,36.20
2018-07-22T14:05:40.216Z,35.80
2018-07-22T14:07:33.241Z,35.30
2018-07-22T14:08:33.236Z,35.45
2018-07-22T14:10:26.362Z,35.66
2018-07-22T14:11:26.308Z,35.45
2018-07-22T14:13:19.337Z,35.76
2018-07-22T14:14:19.403Z,35.73
2018-07-22T14:16:12.514Z,36.09
2018-07-22T14:17:12.449Z,36.17
2018-07-22T14:19:05.534Z,36.30
2018-07-22T14:20:05.495Z,36.57
2018-07-22T14:21:58.338Z,36.51
2018-07-22T14:22:58.294Z,36.64
2018-07-22T14:24:51.187Z,35.83
2018-07-22T14:25:51.169Z,35.80
2018-07-22T14:27:44.289Z,35.15
2018-07-22T14:28:44.192Z,35.26
2018-07-22T14:30:37.226Z,34.62
2018-07-22T14:31:37.176Z,34.60
2018-07-22T14:33:30.261Z,34.77
2018-07-22T14:34:30.259Z,34.45
2018-07-22T14:36:23.277Z,34.30
2018-07-22T14:37:23.317Z,34.24
2018-07-22T14:39:16.454Z,33.30
2018-07-22T14:40:16.381Z,33.52
2018-07-22T14:42:09.244Z,33.89
2018-07-22T14:43:09.186Z,33.90
2018-07-22T14:45:02.203Z,33.71
2018-07-22T14:46:02.167Z,33.61
2018-07-22T14:47:55.327Z,33.00
2018-07-22T14:48:55.262Z,32.80
2018-07-22T14:50:48.314Z,32.75
2018-07-22T14:51:48.293Z,33.08
2018-07-22T14:53:41.628Z,33.49
2018-07-22T14:54:41.409Z,33.39
2018-07-22T14:56:34.458Z,33.01
2018-07-22T14:57:34.439Z,32.40
2018-07-22T14:59:27.450Z,32.37
2018-07-22T15:00:27.413Z,32.09
2018-07-22T15:02:20.272Z,31.94
2018-07-22T15:03:20.223Z,31.93
2018-07-22T15:05:13.238Z,31.92
2018-07-22T15:06:13.199Z,31.81
2018-07-22T15:08:06.194Z,31.96
2018-07-22T15:09:06.170Z,31.93
2018-07-22T15:10:59.361Z,31.81
2018-07-22T15:11:59.325Z,31.92
2018-07-22T15:13:52.223Z,32.27
2018-07-22T15:14:52.129Z,32.31
2018-07-22T15:16:45.145Z,32.36
2018-07-22T15:17:45.115Z,32.31
2018-07-22T15:19:38.141Z,31.94
2018-07-22T15:20:38.098Z,31.92
2018-07-22T15:22:30.945Z,32.08
2018-07-22T15:23:30.905Z,32.27
2018-07-22T15:25:23.929Z,32.19
2018-07-22T15:26:23.880Z,32.40
2018-07-22T15:28:16.750Z,32.52
2018-07-22T15:29:16.758Z,32.65
2018-07-22T15:31:09.748Z,32.95
2018-07-22T15:32:09.702Z,32.74
2018-07-22T15:34:02.752Z,33.01
2018-07-22T15:35:02.721Z,33.15
2018-07-22T15:36:55.846Z,33.07
2018-07-22T15:37:55.837Z,33.40
2018-07-22T15:39:48.835Z,33.53
2018-07-22T15:40:48.802Z,33.81
2018-07-22T15:42:41.955Z,33.77
2018-07-22T15:43:41.929Z,33.59
2018-07-22T15:45:34.952Z,33.07
2018-07-22T15:46:34.911Z,33.31
2018-07-22T15:48:27.930Z,33.65
2018-07-22T15:49:27.966Z,33.81
2018-07-22T15:51:20.901Z,34.10
2018-07-22T15:52:20.770Z,33.83
2018-07-22T15:54:13.760Z,33.43
2018-07-22T15:55:13.903Z,33.19
2018-07-22T15:57:06.776Z,33.40
2018-07-22T15:58:06.726Z,33.50
2018-07-22T15:59:59.826Z,33.19
2018-07-22T16:00:59.795Z,33.09
2018-07-22T16:02:52.810Z,32.55
2018-07-22T16:03:52.758Z,32.52
2018-07-22T16:05:46.022Z,32.48
2018-07-22T16:06:45.882Z,32.55
2018-07-22T16:08:38.890Z,32.64
2018-07-22T16:09:38.882Z,32.68
2018-07-22T16:11:31.906Z,32.56
2018-07-22T16:12:31.851Z,32.65
2018-07-22T16:14:24.826Z,32.65
2018-07-22T16:15:24.689Z,32.65
2018-07-22T16:17:17.700Z,32.49
2018-07-22T16:18:17.653Z,32.40
2018-07-22T16:20:10.982Z,31.87
2018-07-22T16:21:10.956Z,31.47
2018-07-22T16:23:04.026Z,31.14
2018-07-22T16:24:03.948Z,31.29
2018-07-22T16:25:56.770Z,31.09
2018-07-22T16:26:56.749Z,30.94
2018-07-22T16:28:49.979Z,30.85
2018-07-22T16:29:49.879Z,30.91
2018-07-22T16:31:42.707Z,30.44
2018-07-22T16:32:42.689Z,30.39
2018-07-22T16:34:35.735Z,30.24
2018-07-22T16:35:35.706Z,30.35
2018-07-22T16:37:29.069Z,30.19
2018-07-22T16:38:28.998Z,30.19
2018-07-22T16:40:21.985Z,30.27
2018-07-22T16:41:21.970Z,30.31
2018-07-22T16:43:14.851Z,30.16
2018-07-22T16:44:14.785Z,30.24
2018-07-22T16:46:07.642Z,30.09
2018-07-22T16:47:07.590Z,30.06
2018-07-22T16:49:00.451Z,29.87
2018-07-22T16:50:00.400Z,29.86
2018-07-22T16:51:53.428Z,29.59
2018-07-22T16:52:53.376Z,29.59
2018-07-22T16:54:46.208Z,29.38
2018-07-22T16:55:46.163Z,29.31
2018-07-22T16:57:39.205Z,29.29
2018-07-22T16:58:39.176Z,29.27
2018-07-22T17:00:32.184Z,29.14
2018-07-22T17:01:32.142Z,29.26
2018-07-22T17:03:25.350Z,29.02
2018-07-22T17:04:25.300Z,28.97
2018-07-22T17:06:18.307Z,28.88
2018-07-22T17:07:18.358Z,28.79
2018-07-22T17:09:11.280Z,28.78
2018-07-22T17:10:11.226Z,28.70
2018-07-22T17:12:04.093Z,28.66
2018-07-22T17:13:04.025Z,28.74
2018-07-22T17:14:57.027Z,28.75
2018-07-22T17:15:57.003Z,28.74
2018-07-22T17:17:49.841Z,28.66
2018-07-22T17:18:49.903Z,28.59
2018-07-22T17:20:43.098Z,28.54
2018-07-22T17:21:42.961Z,28.56
2018-07-22T17:23:35.946Z,28.52
2018-07-22T17:24:35.919Z,28.45
2018-07-22T17:26:28.933Z,28.49
2018-07-22T17:27:28.886Z,28.38
2018-07-22T17:29:21.943Z,28.33
2018-07-22T17:30:21.978Z,28.41
2018-07-22T17:32:14.953Z,28.38
2018-07-22T17:33:14.978Z,28.38
2018-07-22T17:35:08.065Z,28.27
2018-07-22T17:36:08.023Z,28.25
2018-07-22T17:38:01.035Z,28.19
2018-07-22T17:39:01.014Z,28.17
2018-07-22T17:40:54.008Z,28.15
2018-07-22T17:41:53.988Z,28.02
2018-07-22T17:43:46.876Z,28.07
2018-07-22T17:44:46.825Z,28.07
2018-07-22T17:46:39.851Z,28.04
2018-07-22T17:47:39.806Z,28.08
2018-07-22T17:49:32.807Z,28.08
2018-07-22T17:50:32.770Z,28.12
2018-07-22T17:52:25.629Z,28.07
2018-07-22T17:53:25.575Z,28.17
2018-07-22T17:55:18.623Z,28.23
2018-07-22T17:56:18.555Z,28.17
2018-07-22T17:58:11.562Z,28.22
2018-07-22T17:59:11.565Z,28.22
2018-07-22T18:01:04.737Z,28.01
2018-07-22T18:02:04.617Z,28.10
2018-07-22T18:03:57.633Z,28.12
2018-07-22T18:04:57.596Z,28.08
2018-07-22T18:06:50.582Z,28.14
2018-07-22T18:07:50.566Z,28.10
2018-07-22T18:09:43.408Z,28.26
2018-07-22T18:10:43.353Z,28.14
2018-07-22T18:12:36.368Z,28.27
2018-07-22T18:13:36.335Z,28.23
2018-07-22T18:15:29.361Z,28.19
2018-07-22T18:16:29.324Z,28.15
2018-07-22T18:18:22.244Z,28.11
2018-07-22T18:19:22.222Z,28.12
2018-07-22T18:21:15.090Z,28.14
2018-07-22T18:22:15.013Z,28.14
2018-07-22T18:24:08.018Z,28.08
2018-07-22T18:25:07.994Z,28.22
2018-07-22T18:27:01.321Z,28.15
2018-07-22T18:28:01.125Z,28.22
2018-07-22T18:29:54.131Z,28.22
2018-07-22T18:30:54.093Z,28.19
2018-07-22T18:32:47.131Z,28.26